Time;durP1;ratioP1;P1;durP2;ratioP2;P2;SDS_P1;SDS_P2;PMS_P1;PMS_P2;Temp;Humidity;BMP_temperature;BMP_pressure;BME280_temperature;BME280_humidity;BME280_pressure;Samples;Min_cycle;Max_cycle;Signal;HPM_P1;HPM_P2
2021/04/18 00:00:41;;;;;;;28.60;27.10;;;5.60;99.90;;;;;;4953966;29;20461;-70
2021/04/18 00:03:08;;;;;;;28.43;26.93;;;5.60;99.90;;;;;;4954279;29;20449;-69
2021/04/18 00:05:34;;;;;;;27.40;25.83;;;5.50;99.90;;;;;;4953991;29;20842;-69
2021/04/18 00:08:04;;;;;;;28.17;26.67;;;5.60;99.90;;;;;;4953791;29;20468;-70
2021/04/18 00:10:32;;;;;;;27.30;25.87;;;5.60;99.90;;;;;;4953684;29;20583;-70
2021/04/18 00:12:59;;;;;;;27.40;25.80;;;5.60;99.90;;;;;;4953534;28;20557;-70
2021/04/18 00:15:25;;;;;;;27.13;25.83;;;5.50;99.90;;;;;;4953449;29;20500;-70
2021/04/18 00:17:52;;;;;;;26.83;25.53;;;5.50;99.90;;;;;;4953026;28;20450;-70
2021/04/18 00:20:19;;;;;;;28.77;27.07;;;5.50;99.90;;;;;;4953761;29;20458;-70
2021/04/18 00:22:45;;;;;;;27.53;26.00;;;5.50;99.90;;;;;;4953651;29;20443;-70
2021/04/18 00:25:14;;;;;;;27.10;25.67;;;5.60;99.90;;;;;;4953154;29;20453;-69
2021/04/18 00:27:41;;;;;;;27.83;26.33;;;5.50;99.90;;;;;;4953462;29;20492;-69
2021/04/18 00:30:11;;;;;;;26.80;25.50;;;5.50;99.90;;;;;;4953561;29;20514;-69
2021/04/18 00:32:38;;;;;;;26.77;25.37;;;5.50;99.90;;;;;;4953585;29;20453;-69
2021/04/18 00:35:05;;;;;;;27.33;25.97;;;5.40;99.90;;;;;;4953297;29;20486;-69
2021/04/18 00:37:31;;;;;;;25.90;24.60;;;5.50;99.90;;;;;;4952924;29;20463;-69
2021/04/18 00:39:57;;;;;;;27.13;25.53;;;5.50;99.90;;;;;;4953106;29;21064;-69
2021/04/18 00:42:24;;;;;;;25.57;24.27;;;5.40;99.90;;;;;;4953191;29;20458;-68
2021/04/18 00:44:50;;;;;;;27.70;26.20;;;5.40;99.90;;;;;;4953089;29;20513;-69
2021/04/18 00:47:17;;;;;;;28.43;27.00;;;5.30;99.90;;;;;;4953111;29;20453;-69
2021/04/18 00:49:44;;;;;;;27.03;25.43;;;5.30;99.90;;;;;;4952944;29;20485;-68
2021/04/18 00:52:11;;;;;;;27.23;25.80;;;5.20;99.90;;;;;;4953263;29;20456;-68
2021/04/18 00:54:37;;;;;;;27.57;26.07;;;5.10;99.90;;;;;;4953521;29;20490;-68
2021/04/18 00:57:04;;;;;;;27.20;25.70;;;5.10;99.90;;;;;;4952838;29;20453;-68
2021/04/18 00:59:31;;;;;;;27.47;25.97;;;5.00;99.90;;;;;;4953312;29;20450;-68
2021/04/18 01:01:57;;;;;;;27.67;26.00;;;5.00;99.90;;;;;;4953108;29;20447;-68
2021/04/18 01:04:24;;;;;;;28.47;26.43;;;5.00;99.90;;;;;;4953255;29;20450;-68
2021/04/18 01:06:50;;;;;;;27.70;26.00;;;5.00;99.90;;;;;;4952995;29;20454;-68
2021/04/18 01:09:17;;;;;;;27.87;26.10;;;5.00;99.90;;;;;;4952560;29;20457;-69
2021/04/18 01:11:43;;;;;;;28.17;26.60;;;5.10;99.90;;;;;;4952607;29;20940;-68
2021/04/18 01:14:09;;;;;;;27.63;26.03;;;5.10;99.90;;;;;;4952389;28;20491;-68
2021/04/18 01:16:35;;;;;;;28.30;26.83;;;5.10;99.90;;;;;;4952859;29;20492;-68
2021/04/18 01:19:01;;;;;;;28.60;27.10;;;5.10;99.90;;;;;;4952716;29;20453;-68
2021/04/18 01:21:28;;;;;;;29.60;27.83;;;5.10;99.90;;;;;;4951052;29;20450;-68
2021/04/18 01:26:30;;;;;;;29.20;27.50;;;5.10;99.90;;;;;;5476305;23;20557;-69
2021/04/18 01:28:56;;;;;;;28.70;27.10;;;5.10;99.90;;;;;;4981347;28;20501;-68
2021/04/18 01:31:23;;;;;;;28.67;26.97;;;5.10;99.90;;;;;;4978451;28;20451;-68
2021/04/18 01:33:49;;;;;;;28.40;26.67;;;5.10;99.90;;;;;;4978031;28;20447;-68
2021/04/18 01:36:15;;;;;;;28.17;26.43;;;5.10;99.90;;;;;;4978365;28;20814;-68
2021/04/18 01:38:43;;;;;;;29.00;27.30;;;5.30;99.90;;;;;;4977885;28;21012;-68
2021/04/18 01:41:10;;;;;;;29.43;27.63;;;5.30;99.90;;;;;;4978265;28;20769;-68
2021/04/18 01:43:39;;;;;;;29.03;27.43;;;5.30;99.90;;;;;;4978179;28;20827;-69
2021/04/18 01:46:05;;;;;;;28.27;26.73;;;5.20;99.90;;;;;;4978058;28;20974;-69
2021/04/18 01:48:32;;;;;;;29.17;27.37;;;5.30;99.90;;;;;;4978136;28;20457;-68
2021/04/18 01:51:04;;;;;;;28.67;26.90;;;5.30;99.90;;;;;;4978058;28;20482;-68
2021/04/18 01:53:30;;;;;;;28.50;26.70;;;5.30;99.90;;;;;;4977980;28;20534;-69
2021/04/18 01:55:57;;;;;;;29.50;27.80;;;5.40;99.90;;;;;;4977803;28;21079;-69
2021/04/18 01:58:24;;;;;;;29.07;27.33;;;5.40;99.90;;;;;;4977953;28;20451;-68
2021/04/18 02:00:50;;;;;;;29.17;27.20;;;5.30;99.90;;;;;;4978028;28;20794;-68
2021/04/18 02:03:16;;;;;;;29.40;27.60;;;5.40;99.90;;;;;;4977873;28;20451;-69
2021/04/18 02:05:42;;;;;;;28.07;26.57;;;5.50;99.90;;;;;;4977748;28;20462;-68
2021/04/18 02:08:08;;;;;;;27.43;26.00;;;5.50;99.90;;;;;;4977901;28;20460;-69
2021/04/18 02:10:34;;;;;;;30.27;28.27;;;5.50;99.90;;;;;;4977904;28;20459;-69
2021/04/18 02:13:02;;;;;;;26.87;25.40;;;5.50;99.90;;;;;;4977948;28;20451;-68
2021/04/18 02:15:28;;;;;;;29.23;27.33;;;5.40;99.90;;;;;;4978049;28;21246;-69
2021/04/18 02:17:54;;;;;;;28.53;26.70;;;5.40;99.90;;;;;;4977856;28;20463;-69
2021/04/18 02:20:20;;;;;;;29.43;27.73;;;5.40;99.90;;;;;;4977817;28;20939;-69
2021/04/18 02:22:47;;;;;;;28.97;27.10;;;5.30;99.90;;;;;;4977673;28;20807;-69
2021/04/18 02:25:14;;;;;;;29.13;27.33;;;5.40;99.90;;;;;;4977576;28;20529;-69
2021/04/18 02:27:41;;;;;;;29.70;27.63;;;5.40;99.90;;;;;;4977832;28;20523;-68
2021/04/18 02:30:10;;;;;;;28.13;26.40;;;5.40;99.90;;;;;;4977798;28;20447;-68
2021/04/18 02:32:36;;;;;;;28.80;27.10;;;5.40;99.90;;;;;;4977770;28;20450;-68
2021/04/18 02:35:04;;;;;;;29.60;27.60;;;5.40;99.90;;;;;;4977707;28;20557;-69
2021/04/18 02:37:31;;;;;;;27.63;26.00;;;5.50;99.90;;;;;;4977479;28;20942;-68
2021/04/18 02:39:57;;;;;;;28.23;26.53;;;5.40;99.90;;;;;;4975991;28;20519;-68
2021/04/18 02:42:23;;;;;;;28.57;26.67;;;5.40;99.90;;;;;;4974667;28;20467;-69
2021/04/18 02:44:49;;;;;;;28.30;26.40;;;5.40;99.90;;;;;;4974451;28;21093;-68
2021/04/18 02:47:16;;;;;;;29.23;27.40;;;5.40;99.90;;;;;;4974393;28;20455;-68
2021/04/18 02:49:42;;;;;;;28.83;27.23;;;5.50;99.90;;;;;;4974083;28;20978;-68
2021/04/18 02:52:09;;;;;;;29.77;27.87;;;5.40;99.90;;;;;;4974500;28;20508;-68
2021/04/18 02:54:36;;;;;;;29.17;27.17;;;5.40;99.90;;;;;;4974573;28;20557;-68
2021/04/18 02:57:02;;;;;;;29.97;28.17;;;5.30;99.90;;;;;;4974227;28;20460;-68
2021/04/18 02:59:28;;;;;;;29.13;27.17;;;5.30;99.90;;;;;;4973985;28;20459;-68
2021/04/18 03:01:54;;;;;;;28.37;26.67;;;5.30;99.90;;;;;;4973976;28;20453;-68
2021/04/18 03:04:21;;;;;;;29.73;27.50;;;5.30;99.90;;;;;;4974417;28;20458;-69
2021/04/18 03:06:48;;;;;;;30.17;28.37;;;5.40;99.90;;;;;;4974197;28;20801;-68
2021/04/18 03:09:14;;;;;;;28.57;26.60;;;5.40;99.90;;;;;;4974095;28;20530;-69
2021/04/18 03:11:40;;;;;;;30.00;28.07;;;5.50;99.90;;;;;;4973695;28;20462;-69
2021/04/18 03:14:06;;;;;;;29.67;27.73;;;5.50;99.90;;;;;;4974506;28;20462;-69
2021/04/18 03:16:32;;;;;;;30.30;28.10;;;5.60;99.90;;;;;;4974084;28;20505;-68
2021/04/18 03:18:58;;;;;;;30.47;28.47;;;5.60;99.90;;;;;;4974029;28;20832;-69
2021/04/18 03:21:25;;;;;;;30.00;28.10;;;5.60;99.90;;;;;;4973844;28;20465;-68
2021/04/18 03:23:52;;;;;;;31.63;29.43;;;5.50;99.90;;;;;;4974082;28;20470;-71
2021/04/18 03:26:18;;;;;;;30.37;28.47;;;5.60;99.90;;;;;;4973405;28;20475;-70
2021/04/18 03:28:44;;;;;;;30.40;28.50;;;5.60;99.90;;;;;;4973651;28;20518;-71
2021/04/18 03:31:10;;;;;;;31.13;29.30;;;5.60;99.90;;;;;;4973423;28;20449;-72
2021/04/18 03:33:37;;;;;;;29.57;27.67;;;5.50;99.90;;;;;;4973787;28;20465;-71
2021/04/18 03:36:05;;;;;;;29.27;27.37;;;5.60;99.90;;;;;;4973733;28;20522;-71
2021/04/18 03:38:32;;;;;;;31.50;29.53;;;5.50;99.90;;;;;;4973357;28;20458;-71
2021/04/18 03:40:58;;;;;;;28.83;26.87;;;5.50;99.90;;;;;;4974063;28;20451;-71
2021/04/18 03:43:24;;;;;;;28.67;26.87;;;5.60;99.90;;;;;;4974317;28;20816;-70
2021/04/18 03:45:50;;;;;;;28.93;27.27;;;5.60;99.90;;;;;;4974234;28;20447;-70
2021/04/18 03:48:16;;;;;;;28.60;26.63;;;5.60;99.90;;;;;;4973773;28;20462;-70
2021/04/18 03:50:43;;;;;;;29.67;27.80;;;5.50;99.90;;;;;;4973944;28;20821;-70
2021/04/18 03:53:09;;;;;;;30.30;28.30;;;5.50;99.90;;;;;;4972845;28;20461;-70
2021/04/18 03:55:36;;;;;;;30.03;28.13;;;5.50;99.90;;;;;;4973685;28;20499;-70
2021/04/18 03:58:02;;;;;;;29.00;27.00;;;5.60;99.90;;;;;;4973406;28;20449;-70
2021/04/18 04:00:28;;;;;;;30.40;28.43;;;5.60;99.90;;;;;;4972913;28;20450;-71
2021/04/18 04:02:54;;;;;;;28.67;26.70;;;5.50;99.90;;;;;;4973050;28;20458;-70
2021/04/18 04:05:21;;;;;;;28.87;26.97;;;5.50;99.90;;;;;;4973043;28;20965;-71
2021/04/18 04:07:47;;;;;;;28.97;27.00;;;5.50;99.90;;;;;;4972915;28;20457;-70
2021/04/18 04:10:13;;;;;;;30.63;28.63;;;5.60;99.90;;;;;;4972736;28;20518;-70
2021/04/18 04:12:40;;;;;;;30.33;28.23;;;5.60;99.90;;;;;;4972848;28;20473;-71
2021/04/18 04:15:07;;;;;;;29.23;27.33;;;5.70;99.90;;;;;;4972968;28;20549;-70
2021/04/18 04:17:33;;;;;;;28.00;26.30;;;5.70;99.90;;;;;;4972753;28;20974;-70
2021/04/18 04:20:00;;;;;;;27.07;25.27;;;5.80;99.90;;;;;;4972876;28;20448;-72
2021/04/18 04:22:26;;;;;;;28.07;26.20;;;5.80;99.90;;;;;;4972406;28;20457;-71
2021/04/18 04:24:53;;;;;;;29.30;27.27;;;5.70;99.90;;;;;;4972587;28;20512;-72
2021/04/18 04:27:19;;;;;;;28.67;26.93;;;5.70;99.90;;;;;;4972611;28;20477;-71
2021/04/18 04:29:46;;;;;;;30.43;28.20;;;5.80;99.90;;;;;;4972381;28;20551;-71
2021/04/18 04:32:13;;;;;;;28.87;26.77;;;5.80;99.90;;;;;;4972223;28;20453;-71
2021/04/18 04:34:39;;;;;;;26.60;24.77;;;5.80;99.90;;;;;;4972273;28;20457;-71
2021/04/18 04:37:06;;;;;;;25.83;24.40;;;5.80;99.90;;;;;;4972709;28;20460;-71
2021/04/18 04:39:32;;;;;;;27.30;25.63;;;5.90;99.90;;;;;;4972490;28;20461;-71
2021/04/18 04:41:58;;;;;;;26.83;25.13;;;5.80;99.90;;;;;;4972288;28;20567;-71
2021/04/18 04:44:24;;;;;;;25.07;23.23;;;5.80;99.90;;;;;;4971955;28;20465;-72
2021/04/18 04:46:51;;;;;;;25.67;24.13;;;5.70;99.90;;;;;;4972580;28;20524;-72
2021/04/18 04:49:17;;;;;;;24.23;22.63;;;5.80;99.90;;;;;;4972349;28;20799;-71
2021/04/18 04:51:43;;;;;;;24.63;22.93;;;5.90;99.90;;;;;;4971995;28;20458;-71
2021/04/18 04:54:10;;;;;;;23.20;21.70;;;5.90;99.90;;;;;;4971857;28;20485;-71
2021/04/18 04:56:36;;;;;;;23.77;22.10;;;5.90;99.90;;;;;;4972074;28;20490;-71
2021/04/18 04:59:02;;;;;;;23.67;22.37;;;5.90;99.90;;;;;;4971858;28;20445;-70
2021/04/18 05:01:28;;;;;;;22.20;20.90;;;5.90;99.90;;;;;;4971588;28;20466;-70
2021/04/18 05:03:55;;;;;;;22.63;21.23;;;5.90;99.90;;;;;;4971683;28;20456;-70
2021/04/18 05:06:21;;;;;;;21.60;20.20;;;6.00;99.90;;;;;;4971922;28;20453;-70
2021/04/18 05:08:48;;;;;;;22.73;21.27;;;6.10;99.90;;;;;;4971610;28;20516;-71
2021/04/18 05:11:14;;;;;;;21.57;19.87;;;6.00;99.90;;;;;;4971609;28;20512;-72
2021/04/18 05:13:40;;;;;;;21.40;20.10;;;6.10;99.90;;;;;;4971722;28;20457;-70
2021/04/18 05:16:07;;;;;;;22.73;21.33;;;6.20;99.90;;;;;;4971784;28;20493;-69
2021/04/18 05:18:33;;;;;;;22.83;21.33;;;6.20;99.90;;;;;;4971887;28;20478;-72
2021/04/18 05:21:00;;;;;;;22.00;20.50;;;6.20;99.90;;;;;;4971644;28;20971;-72
2021/04/18 05:23:27;;;;;;;20.27;18.97;;;6.30;99.90;;;;;;4971283;28;20978;-71
2021/04/18 05:25:53;;;;;;;22.10;20.70;;;6.40;99.90;;;;;;4971001;28;20828;-72
2021/04/18 05:28:20;;;;;;;20.13;18.83;;;6.50;99.90;;;;;;4970874;28;20975;-72
2021/04/18 05:30:46;;;;;;;19.87;18.70;;;6.50;99.90;;;;;;4971047;28;20541;-72
2021/04/18 05:33:12;;;;;;;21.40;20.10;;;6.60;99.90;;;;;;4969249;28;21002;-72
2021/04/18 05:35:38;;;;;;;22.53;21.10;;;6.60;99.90;;;;;;4971569;28;20830;-72
2021/04/18 05:38:05;;;;;;;21.20;19.97;;;6.70;99.90;;;;;;4971798;28;20455;-72
2021/04/18 05:40:32;;;;;;;21.80;20.43;;;6.80;99.90;;;;;;4971394;28;20832;-72
2021/04/18 05:42:58;;;;;;;21.63;20.27;;;6.90;99.90;;;;;;4971398;28;20832;-70
2021/04/18 05:45:24;;;;;;;22.20;20.70;;;6.90;99.90;;;;;;4971643;28;21022;-70
2021/04/18 05:47:50;;;;;;;21.97;20.47;;;7.00;99.90;;;;;;4972462;28;20468;-70
2021/04/18 05:50:16;;;;;;;20.47;19.17;;;6.90;99.90;;;;;;4982292;28;20459;-70
2021/04/18 05:52:44;;;;;;;21.73;20.33;;;7.10;99.90;;;;;;4990592;28;20488;-70
2021/04/18 05:55:12;;;;;;;20.93;19.53;;;7.00;99.90;;;;;;4990442;28;20486;-70
2021/04/18 05:57:38;;;;;;;22.10;20.60;;;7.10;99.90;;;;;;4990581;28;20453;-70
2021/04/18 06:00:05;;;;;;;21.00;19.70;;;7.20;99.90;;;;;;4990419;28;20450;-70
2021/04/18 06:02:31;;;;;;;21.33;20.03;;;7.30;99.90;;;;;;4990512;28;20446;-71
2021/04/18 06:04:57;;;;;;;20.70;19.40;;;7.30;99.90;;;;;;4990250;28;20768;-71
2021/04/18 06:07:23;;;;;;;20.70;19.40;;;7.40;99.90;;;;;;4990291;28;20454;-71
2021/04/18 06:09:49;;;;;;;20.50;19.20;;;7.30;99.90;;;;;;4990325;28;20449;-72
2021/04/18 06:12:16;;;;;;;22.07;20.77;;;7.20;99.90;;;;;;4990274;28;20501;-72
2021/04/18 06:14:42;;;;;;;21.63;20.13;;;7.20;99.90;;;;;;4990040;28;20812;-71
2021/04/18 06:17:09;;;;;;;20.60;19.23;;;7.30;99.90;;;;;;4993433;28;20446;-71
2021/04/18 06:19:35;;;;;;;20.23;19.03;;;7.40;99.90;;;;;;4993865;28;20863;-71
2021/04/18 06:22:01;;;;;;;21.07;19.87;;;7.40;99.90;;;;;;4993662;28;20453;-72
2021/04/18 06:24:27;;;;;;;21.20;19.80;;;7.60;99.90;;;;;;4993603;28;20481;-71
2021/04/18 06:26:53;;;;;;;20.57;19.13;;;7.70;99.90;;;;;;4993650;28;20471;-71
2021/04/18 06:29:20;;;;;;;21.40;20.10;;;7.90;99.90;;;;;;4993703;28;20473;-71
2021/04/18 06:31:47;;;;;;;21.07;19.77;;;7.90;99.90;;;;;;4993444;28;20469;-71
2021/04/18 06:34:13;;;;;;;20.17;18.93;;;7.90;99.90;;;;;;4993421;28;20454;-71
2021/04/18 06:36:39;;;;;;;19.67;18.33;;;8.00;99.90;;;;;;4993204;28;21000;-71
2021/04/18 06:39:06;;;;;;;20.20;18.90;;;8.00;99.90;;;;;;4993611;28;20521;-71
2021/04/18 06:41:35;;;;;;;20.17;18.60;;;8.10;99.90;;;;;;4993474;28;20872;-71
2021/04/18 06:44:04;;;;;;;19.57;18.37;;;7.90;99.90;;;;;;4993366;28;20455;-72
2021/04/18 06:46:32;;;;;;;20.07;18.77;;;8.00;99.90;;;;;;4992019;28;20451;-72
2021/04/18 06:48:59;;;;;;;21.87;19.97;;;7.90;99.90;;;;;;4993967;28;20506;-72
2021/04/18 06:51:26;;;;;;;21.73;20.30;;;7.80;99.90;;;;;;4993920;28;20458;-72
2021/04/18 06:53:52;;;;;;;21.03;19.73;;;7.70;99.90;;;;;;4993998;28;20454;-72
2021/04/18 06:56:18;;;;;;;21.90;20.17;;;7.70;99.90;;;;;;4993870;28;20498;-72
2021/04/18 06:58:44;;;;;;;20.40;19.10;;;7.60;99.90;;;;;;4993742;28;20443;-72
2021/04/18 07:21:57;;;;;;;;;;;;;;;;;;;;;
2021/04/18 07:27:09;;;;;;;20.60;19.40;;;10.10;99.90;;;;;;4990499;28;20525;-80
2021/04/18 07:29:36;;;;;;;20.73;19.43;;;10.40;99.90;;;;;;4993872;28;20460;-80
2021/04/18 07:32:17;;;;;;;20.70;19.40;;;10.60;99.90;;;;;;4993753;28;20453;-80
2021/04/18 07:48:51;;;;;;;19.13;18.03;;;10.60;99.90;;;;;;4950497;28;20496;-80
2021/04/18 07:57:59;;;;;;;21.10;19.70;;;10.90;99.90;;;;;;4905208;29;20479;-80
2021/04/18 08:00:26;;;;;;;19.23;18.10;;;11.00;99.90;;;;;;4993058;28;20844;-80
2021/04/18 08:02:53;;;;;;;22.23;20.73;;;11.20;99.90;;;;;;4993171;28;20451;-80
2021/04/18 08:05:25;;;;;;;18.83;17.63;;;11.40;99.90;;;;;;4993221;28;20875;-80
2021/04/18 08:08:14;;;;;;;20.30;18.97;;;11.30;99.90;;;;;;4993170;28;20456;-81
2021/04/18 08:10:43;;;;;;;19.83;18.53;;;11.10;99.90;;;;;;4990238;28;20856;-80
2021/04/18 08:13:13;;;;;;;21.07;19.47;;;11.40;99.90;;;;;;4992930;28;20455;-81
2021/04/18 08:15:51;;;;;;;20.50;19.00;;;11.40;99.90;;;;;;4992822;28;21079;-81
2021/04/18 08:18:17;;;;;;;20.27;19.00;;;11.60;99.90;;;;;;4993051;28;20450;-81
2021/04/18 08:20:46;;;;;;;18.20;17.10;;;11.70;99.90;;;;;;4992819;28;20471;-81
2021/04/18 08:23:14;;;;;;;19.27;17.87;;;11.90;99.90;;;;;;4992552;28;20762;-81
2021/04/18 08:26:31;;;;;;;19.53;18.23;;;12.30;99.90;;;;;;4992303;28;20549;-80
2021/04/18 08:29:12;;;;;;;19.73;18.47;;;12.10;99.90;;;;;;4992666;28;21061;-82
2021/04/18 08:31:58;;;;;;;18.57;17.47;;;12.10;99.90;;;;;;4992576;28;20528;-82
2021/04/18 08:34:27;;;;;;;20.30;18.80;;;12.10;99.90;;;;;;4991705;28;20550;-80
2021/04/18 08:36:54;;;;;;;20.13;18.53;;;12.10;99.90;;;;;;4992340;28;21022;-80
2021/04/18 08:39:23;;;;;;;19.23;17.93;;;11.90;99.90;;;;;;4991822;28;20454;-80
2021/04/18 08:42:24;;;;;;;19.40;17.90;;;11.70;99.90;;;;;;4992561;28;20459;-80
2021/04/18 08:44:52;;;;;;;19.50;18.00;;;11.90;99.90;;;;;;4992546;28;20466;-80
2021/04/18 08:47:21;;;;;;;18.50;17.30;;;12.30;99.90;;;;;;4992347;28;20816;-79
2021/04/18 08:49:49;;;;;;;17.10;16.00;;;11.90;99.90;;;;;;4992282;28;20459;-79
2021/04/18 08:59:56;;;;;;;17.03;16.03;;;12.30;99.90;;;;;;4992257;28;20397;-79
2021/04/18 09:02:25;;;;;;;17.53;16.53;;;12.80;99.90;;;;;;4989873;28;20975;-80
2021/04/18 09:04:54;;;;;;;18.50;17.20;;;13.00;98.20;;;;;;4992210;28;20454;-79
2021/04/18 09:07:25;;;;;;;19.53;18.33;;;12.90;97.90;;;;;;4990024;28;20454;-78
2021/04/18 09:09:56;;;;;;;17.77;16.67;;;12.90;98.60;;;;;;4991214;28;20489;-78
2021/04/18 09:12:22;;;;;;;17.10;16.13;;;12.90;98.10;;;;;;4991872;28;20505;-79
2021/04/18 09:14:49;;;;;;;17.53;16.53;;;13.30;98.00;;;;;;4991819;28;20509;-78
2021/04/18 09:17:17;;;;;;;15.20;14.27;;;13.70;97.00;;;;;;4991704;28;20467;-78
2021/04/18 09:19:46;;;;;;;16.43;15.50;;;13.60;95.80;;;;;;4991934;28;20461;-80
2021/04/18 09:22:15;;;;;;;16.53;15.60;;;13.30;96.30;;;;;;4991798;28;20836;-80
2021/04/18 09:24:45;;;;;;;18.30;17.10;;;13.10;97.30;;;;;;4992002;28;20493;-80
2021/04/18 09:27:14;;;;;;;17.43;16.40;;;13.20;97.10;;;;;;4991193;28;21086;-80
2021/04/18 09:29:50;;;;;;;16.40;15.30;;;13.20;96.50;;;;;;4991324;28;20473;-80
2021/04/18 09:32:19;;;;;;;17.03;15.93;;;13.20;96.00;;;;;;4991185;28;20446;-80
2021/04/18 09:34:47;;;;;;;17.40;15.77;;;12.80;96.90;;;;;;4991473;28;20439;-79
2021/04/18 09:37:16;;;;;;;17.03;15.63;;;12.70;97.20;;;;;;4991147;28;20475;-80
2021/04/18 09:39:44;;;;;;;17.50;16.50;;;12.90;97.50;;;;;;4989141;28;20446;-80
2021/04/18 09:42:11;;;;;;;15.33;14.43;;;13.00;95.70;;;;;;4991120;28;20451;-80
2021/04/18 09:44:43;;;;;;;16.27;15.10;;;12.90;95.00;;;;;;4991226;28;20453;-80
2021/04/18 09:47:19;;;;;;;16.23;15.23;;;13.10;95.20;;;;;;4991236;28;20474;-80
2021/04/18 09:49:49;;;;;;;15.90;15.00;;;13.40;94.60;;;;;;4992983;28;20463;-80
2021/04/18 09:52:36;;;;;;;16.77;15.57;;;13.60;94.00;;;;;;4995331;28;20457;-79
2021/04/18 09:55:16;;;;;;;16.00;15.00;;;13.60;93.60;;;;;;4995490;28;20477;-79
2021/04/18 09:57:45;;;;;;;17.00;15.90;;;13.80;93.60;;;;;;4995447;28;20465;-79
2021/04/18 10:00:16;;;;;;;16.60;15.70;;;13.30;93.50;;;;;;4995262;28;20956;-78
2021/04/18 10:02:55;;;;;;;16.23;15.03;;;13.40;93.20;;;;;;4995391;28;20486;-79
2021/04/18 10:05:23;;;;;;;17.10;15.90;;;14.00;92.60;;;;;;4995394;28;20454;-79
2021/04/18 10:07:49;;;;;;;17.27;16.20;;;14.30;92.00;;;;;;4995447;28;20490;-79
2021/04/18 10:10:31;;;;;;;15.53;14.43;;;14.60;90.60;;;;;;4995164;28;20508;-79
2021/04/18 10:12:59;;;;;;;16.37;15.43;;;14.80;91.00;;;;;;4995458;28;20450;-78
2021/04/18 10:15:26;;;;;;;16.33;15.33;;;14.70;90.70;;;;;;4994973;28;20504;-78
2021/04/18 10:17:52;;;;;;;16.00;15.10;;;14.70;90.70;;;;;;4995291;28;20828;-79
2021/04/18 10:20:24;;;;;;;16.97;15.77;;;14.50;90.40;;;;;;4995143;28;20451;-79
2021/04/18 10:23:04;;;;;;;18.23;16.87;;;14.10;91.20;;;;;;4995184;28;20458;-79
2021/04/18 10:25:30;;;;;;;18.20;16.90;;;14.40;91.30;;;;;;4994793;28;20471;-80
2021/04/18 10:27:57;;;;;;;18.30;17.03;;;15.00;90.50;;;;;;4995083;28;20450;-76
2021/04/18 10:30:23;;;;;;;17.33;16.20;;;15.40;89.00;;;;;;4994947;28;20458;-78
2021/04/18 10:32:50;;;;;;;17.17;16.17;;;14.90;88.30;;;;;;4995023;28;20450;-78
2021/04/18 10:35:16;;;;;;;17.57;16.57;;;14.70;89.70;;;;;;4994497;28;20490;-77
2021/04/18 10:37:44;;;;;;;17.80;16.80;;;14.90;89.20;;;;;;4994622;28;20844;-78
2021/04/18 10:40:12;;;;;;;17.00;15.70;;;14.80;89.40;;;;;;4994605;28;20455;-78
2021/04/18 10:42:38;;;;;;;16.13;15.03;;;15.50;88.90;;;;;;4994731;28;20957;-78
2021/04/18 10:45:05;;;;;;;18.00;16.97;;;15.70;87.60;;;;;;4994902;28;20447;-77
2021/04/18 10:47:32;;;;;;;16.73;15.73;;;15.90;87.60;;;;;;4994449;28;20451;-78
2021/04/18 10:49:59;;;;;;;17.53;16.43;;;16.20;86.40;;;;;;4994534;28;20450;-78
2021/04/18 10:52:26;;;;;;;17.77;16.47;;;16.20;86.20;;;;;;4994302;28;20462;-78
2021/04/18 10:55:11;;;;;;;17.50;16.07;;;16.30;85.40;;;;;;4994623;28;20972;-77
2021/04/18 10:57:37;;;;;;;18.03;16.50;;;15.80;86.80;;;;;;4993468;28;20496;-77
2021/04/18 11:00:07;;;;;;;18.00;16.70;;;15.50;86.90;;;;;;4994617;28;20458;-77
2021/04/18 11:02:33;;;;;;;18.00;16.73;;;16.00;87.00;;;;;;4992151;28;20863;-78
2021/04/18 11:04:59;;;;;;;19.00;17.27;;;16.30;86.10;;;;;;4994137;28;20446;-77
2021/04/18 11:07:26;;;;;;;17.20;16.13;;;16.00;84.50;;;;;;4994114;28;20458;-78
2021/04/18 11:09:52;;;;;;;17.77;16.67;;;15.90;83.80;;;;;;4994414;28;20463;-77
2021/04/18 11:12:20;;;;;;;18.80;17.20;;;15.40;85.70;;;;;;4994315;28;20800;-77
2021/04/18 11:14:47;;;;;;;18.77;17.43;;;14.90;88.30;;;;;;4994254;28;20557;-77
2021/04/18 11:17:13;;;;;;;15.80;14.80;;;14.90;88.20;;;;;;4994082;28;20795;-77
2021/04/18 11:19:40;;;;;;;19.73;18.50;;;14.80;87.60;;;;;;4974617;28;20515;-77
2021/04/18 11:22:06;;;;;;;19.50;18.10;;;15.00;89.10;;;;;;4974639;28;20448;-77
2021/04/18 11:24:32;;;;;;;18.37;17.10;;;15.10;87.50;;;;;;4974460;28;20479;-77
2021/04/18 11:26:58;;;;;;;17.63;16.43;;;15.10;86.20;;;;;;4974350;28;20491;-77
2021/04/18 11:29:25;;;;;;;19.17;17.77;;;15.20;88.10;;;;;;4974638;28;20459;-77
2021/04/18 11:31:52;;;;;;;17.37;16.17;;;15.30;87.00;;;;;;4974458;28;20519;-77
2021/04/18 11:34:18;;;;;;;17.23;16.13;;;15.30;87.20;;;;;;4974446;28;20984;-77
2021/04/18 11:36:45;;;;;;;17.37;16.20;;;15.70;84.00;;;;;;4974168;28;20491;-77
2021/04/18 11:39:11;;;;;;;17.70;16.70;;;16.00;84.30;;;;;;4974163;28;20459;-77
2021/04/18 11:41:38;;;;;;;17.73;16.50;;;15.20;85.70;;;;;;4974287;28;20451;-77
2021/04/18 11:44:05;;;;;;;17.83;16.63;;;15.00;85.60;;;;;;4974511;28;20452;-77
2021/04/18 11:46:33;;;;;;;16.27;15.27;;;15.00;85.40;;;;;;4974144;28;20454;-77
2021/04/18 11:48:59;;;;;;;17.00;15.70;;;14.40;87.70;;;;;;4974119;28;20478;-77
2021/04/18 11:51:26;;;;;;;16.50;15.50;;;14.50;88.60;;;;;;4973953;28;20467;-77
2021/04/18 11:53:52;;;;;;;16.30;15.20;;;14.20;88.00;;;;;;4974104;28;20938;-77
2021/04/18 11:56:18;;;;;;;17.80;16.57;;;14.40;89.20;;;;;;4973823;28;20502;-76
2021/04/18 11:58:44;;;;;;;16.20;15.17;;;13.70;90.10;;;;;;4973812;28;20456;-77
2021/04/18 12:01:10;;;;;;;18.07;16.77;;;13.60;90.10;;;;;;4973753;28;20478;-77
2021/04/18 12:03:37;;;;;;;16.53;15.37;;;13.60;90.20;;;;;;4973975;28;20452;-77
2021/04/18 12:06:04;;;;;;;18.43;17.23;;;13.70;90.50;;;;;;4973713;28;20447;-77
2021/04/18 12:08:31;;;;;;;17.13;16.03;;;13.40;90.50;;;;;;4973823;28;20812;-77
2021/04/18 12:10:57;;;;;;;16.80;15.40;;;13.70;91.00;;;;;;4973585;28;20451;-76
2021/04/18 12:13:23;;;;;;;16.40;15.30;;;13.80;90.70;;;;;;4972875;28;20455;-77
2021/04/18 12:15:49;;;;;;;15.93;14.63;;;13.70;90.70;;;;;;4973622;28;20483;-76
2021/04/18 12:18:15;;;;;;;16.80;15.80;;;14.00;90.70;;;;;;4981713;28;20455;-76
2021/04/18 12:20:42;;;;;;;17.97;16.63;;;14.00;90.30;;;;;;4993137;28;20447;-76
2021/04/18 12:23:09;;;;;;;16.33;15.43;;;14.10;90.90;;;;;;4992784;28;20447;-76
2021/04/18 12:25:35;;;;;;;17.43;16.33;;;14.80;90.20;;;;;;4992662;28;20466;-77
2021/04/18 12:28:01;;;;;;;17.23;16.17;;;15.30;89.60;;;;;;4992756;28;20470;-77
2021/04/18 12:30:28;;;;;;;16.83;15.73;;;15.90;87.60;;;;;;4992606;28;20450;-77
2021/04/18 12:32:54;;;;;;;17.90;16.80;;;16.20;85.90;;;;;;4992675;28;20517;-77
2021/04/18 12:35:20;;;;;;;17.37;16.10;;;16.30;83.50;;;;;;4992623;28;21028;-77
2021/04/18 12:37:47;;;;;;;17.63;16.57;;;16.00;84.60;;;;;;4992544;28;20455;-77
2021/04/18 12:40:14;;;;;;;18.30;17.10;;;17.00;84.10;;;;;;4992679;28;20834;-77
2021/04/18 12:42:41;;;;;;;17.80;16.80;;;18.00;81.90;;;;;;4992703;28;20873;-77
2021/04/18 12:45:09;;;;;;;18.67;17.37;;;19.50;75.70;;;;;;4992616;28;20463;-77
2021/04/18 12:47:35;;;;;;;18.20;17.20;;;19.70;73.00;;;;;;4992641;28;20451;-77
2021/04/18 12:50:01;;;;;;;17.90;16.90;;;19.00;73.00;;;;;;4992338;28;20447;-76
2021/04/18 12:52:27;;;;;;;16.83;15.90;;;18.00;76.50;;;;;;4992305;28;20459;-77
2021/04/18 12:54:54;;;;;;;17.90;16.67;;;17.70;77.70;;;;;;4992386;28;20451;-76
2021/04/18 12:57:22;;;;;;;17.13;16.10;;;17.30;77.10;;;;;;4992389;28;20486;-76
2021/04/18 12:59:52;;;;;;;17.00;16.07;;;16.70;79.40;;;;;;4992250;28;20458;-76
2021/04/18 13:02:21;;;;;;;18.17;16.97;;;16.40;80.70;;;;;;4992360;28;20497;-76
2021/04/18 13:04:47;;;;;;;17.20;16.30;;;16.30;80.60;;;;;;4992101;28;20796;-76
2021/04/18 13:07:16;;;;;;;17.97;16.77;;;15.90;81.40;;;;;;4992110;28;20450;-76
2021/04/18 13:09:43;;;;;;;18.70;17.50;;;15.40;82.00;;;;;;4991947;28;20464;-76
2021/04/18 13:12:10;;;;;;;16.00;14.90;;;14.70;83.50;;;;;;4992232;28;20450;-76
2021/04/18 13:14:36;;;;;;;16.70;15.80;;;14.30;85.50;;;;;;4992190;28;20521;-76
2021/04/18 13:17:03;;;;;;;16.77;15.77;;;14.40;87.60;;;;;;4992098;28;20494;-76
2021/04/18 13:19:29;;;;;;;17.60;16.13;;;14.70;86.60;;;;;;4992048;28;20458;-76
2021/04/18 13:21:55;;;;;;;16.70;15.60;;;15.00;85.90;;;;;;4992056;28;20459;-76
2021/04/18 13:24:21;;;;;;;17.30;15.80;;;15.40;85.80;;;;;;4991874;28;20814;-73
2021/04/18 13:26:48;;;;;;;17.80;16.20;;;15.80;82.70;;;;;;4991821;28;20540;-76
2021/04/18 13:29:15;;;;;;;17.30;16.30;;;15.70;81.80;;;;;;4992509;28;20513;-73